Time;durP1;ratioP1;P1;durP2;ratioP2;P2;SDS_P1;SDS_P2;PMS_P1;PMS_P2;Temp;Humidity;BMP_temperature;BMP_pressure;BME280_temperature;BME280_humidity;BME280_pressure;Samples;Min_cycle;Max_cycle;Signal;HPM_P1;HPM_P2
2021/12/07 00:00:41;;;;;;;;;2.00;0.50;;;;;22.27;35.41;100756.97;5055736;28;45441;-53
2021/12/07 00:03:07;;;;;;;;;0.50;0.50;;;;;22.27;35.64;100762.25;5054359;28;45415;-49
2021/12/07 00:05:32;;;;;;;;;2.00;0.00;;;;;22.25;35.65;100767.66;5055951;28;45253;-50
2021/12/07 00:07:58;;;;;;;;;1.00;1.00;;;;;22.25;35.57;100780.84;5056147;28;45229;-50
2021/12/07 00:10:23;;;;;;;;;2.75;0.50;;;;;22.24;35.51;100769.41;5037606;28;48302;-51
2021/12/07 00:12:49;;;;;;;;;0.00;0.00;;;;;22.23;35.32;100767.72;5056007;28;45296;-48
2021/12/07 00:15:17;;;;;;;;;2.25;0.50;;;;;22.21;35.71;100772.25;5037929;28;45492;-51
2021/12/07 00:17:44;;;;;;;;;3.00;1.00;;;;;22.21;35.68;100779.34;5038333;28;45677;-51
2021/12/07 00:20:14;;;;;;;;;2.00;1.00;;;;;22.19;35.64;100768.88;5055604;28;46690;-51
2021/12/07 00:22:41;;;;;;;;;1.00;1.00;;;;;22.18;35.41;100769.81;5055746;28;45657;-49
2021/12/07 00:25:09;;;;;;;;;1.00;1.00;;;;;22.17;35.38;100762.84;5055617;28;45484;-49
2021/12/07 00:27:34;;;;;;;;;3.00;1.00;;;;;22.16;35.27;100760.31;5055989;28;45519;-49
2021/12/07 00:30:01;;;;;;;;;5.75;2.00;;;;;22.13;35.24;100765.78;5055635;28;46003;-49
2021/12/07 00:32:31;;;;;;;;;2.75;1.25;;;;;22.12;35.29;100769.38;5055757;28;45720;-48
2021/12/07 00:37:26;;;;;;;;;1.00;1.00;;;;;22.07;35.26;100774.94;5056002;28;45568;-49
2021/12/07 00:39:55;;;;;;;;;1.00;1.00;;;;;22.03;35.34;100771.66;5055602;28;47049;-52
2021/12/07 00:42:21;;;;;;;;;1.50;1.00;;;;;22.02;35.43;100782.28;5055894;28;45250;-52
2021/12/07 00:44:48;;;;;;;;;2.75;1.00;;;;;22.00;35.39;100786.78;5055954;28;45395;-49
2021/12/07 00:47:13;;;;;;;;;1.50;1.25;;;;;21.99;35.60;100785.97;5055990;28;45573;-48
2021/12/07 00:49:40;;;;;;;;;2.00;2.00;;;;;21.98;35.53;100778.16;5055362;28;47049;-48
2021/12/07 00:52:05;;;;;;;;;3.00;2.00;;;;;21.97;35.33;100779.09;5055520;28;45741;-51
2021/12/07 00:54:32;;;;;;;;;4.00;3.00;;;;;21.98;35.40;100778.97;5057636;28;45359;-51
2021/12/07 00:56:57;;;;;;;;;3.00;3.00;;;;;21.98;35.40;100773.72;5059269;28;45517;-47
2021/12/07 00:59:23;;;;;;;;;5.00;2.25;;;;;22.00;35.40;100770.97;5058661;28;46848;-48
2021/12/07 01:01:48;;;;;;;;;2.50;2.50;;;;;22.02;35.44;100792.84;5059168;28;45460;-48
2021/12/07 01:04:14;;;;;;;;;2.75;2.50;;;;;22.04;35.75;100780.41;5059041;28;45425;-51
2021/12/07 01:06:59;;;;;;;;;5.00;3.00;;;;;22.06;35.67;100776.72;5058946;28;45225;-49
2021/12/07 01:09:32;;;;;;;;;3.00;3.00;;;;;22.09;35.42;100783.59;5040554;28;47131;-49
2021/12/07 01:25:29;;;;;;;;;3.50;3.00;;;;;22.22;35.35;100787.13;5058439;28;45371;-53
2021/12/07 01:27:59;;;;;;;;;4.00;3.00;;;;;22.23;35.16;100780.91;5058688;28;45429;-52
2021/12/07 01:34:20;;;;;;;;;3.25;3.25;;;;;22.24;34.92;100779.97;5013647;28;45673;-53
2021/12/07 01:59:51;;;;;;;;;5.25;2.75;;;;;22.42;35.00;100795.66;5058293;28;45229;-47
2021/12/07 02:02:19;;;;;;;;;4.00;1.00;;;;;22.43;34.85;100792.06;5057853;28;45335;-48
2021/12/07 02:04:46;;;;;;;;;2.00;2.00;;;;;22.44;34.91;100796.38;5057305;28;45430;-51
2021/12/07 02:07:12;;;;;;;;;4.00;2.00;;;;;22.46;34.47;100798.94;5057693;28;45334;-46
2021/12/07 02:09:41;;;;;;;;;5.25;3.25;;;;;22.48;35.10;100802.31;5058014;28;45269;-48
2021/12/07 02:12:08;;;;;;;;;2.50;2.00;;;;;22.50;34.95;100806.56;5057768;28;45370;-48
2021/12/07 02:14:34;;;;;;;;;2.75;2.75;;;;;22.50;34.96;100803.03;5057711;28;45288;-46
2021/12/07 02:17:06;;;;;;;;;3.00;2.00;;;;;22.51;34.82;100802.97;5057841;28;45328;-45
2021/12/07 02:19:32;;;;;;;;;1.75;1.75;;;;;22.53;34.68;100800.22;5057893;28;45496;-54
2021/12/07 02:21:58;;;;;;;;;2.00;2.00;;;;;22.53;35.03;100806.38;5057427;28;45449;-48
2021/12/07 02:24:24;;;;;;;;;2.00;2.00;;;;;22.57;34.68;100808.78;5057539;28;45973;-53
2021/12/07 02:26:50;;;;;;;;;3.25;3.00;;;;;22.57;34.66;100806.13;5057756;28;45348;-44
2021/12/07 02:29:18;;;;;;;;;4.50;3.00;;;;;22.58;34.76;100814.00;5039563;28;45304;-51
2021/12/07 02:31:44;;;;;;;;;2.50;2.50;;;;;22.59;34.60;100820.09;5056088;28;48473;-48
2021/12/07 02:34:12;;;;;;;;;2.00;2.00;;;;;22.60;34.61;100821.81;5057433;28;45715;-49
2021/12/07 02:36:37;;;;;;;;;3.50;3.25;;;;;22.60;34.88;100821.81;5057483;28;45426;-45
2021/12/07 02:39:07;;;;;;;;;3.00;1.25;;;;;22.61;34.72;100819.06;5057543;28;45313;-47
2021/12/07 02:41:34;;;;;;;;;1.75;1.75;;;;;22.62;34.59;100825.19;5039257;28;47185;-51
2021/12/07 02:44:00;;;;;;;;;2.00;2.00;;;;;22.62;34.71;100825.19;5057326;28;45266;-52
2021/12/07 02:46:25;;;;;;;;;3.75;2.25;;;;;22.60;34.73;100806.78;5057757;28;45220;-50
2021/12/07 02:48:51;;;;;;;;;2.50;2.00;;;;;22.59;34.55;100806.91;5057446;28;45373;-50
2021/12/07 02:51:16;;;;;;;;;2.75;1.75;;;;;22.61;34.61;100816.41;5055675;28;47470;-51
2021/12/07 02:53:41;;;;;;;;;2.50;1.25;;;;;22.61;34.54;100807.66;5057071;28;45331;-50
2021/12/07 02:56:09;;;;;;;;;0.50;0.50;;;;;22.60;34.75;100805.94;5057187;28;45546;-47
2021/12/07 02:58:35;;;;;;;;;1.00;1.00;;;;;22.60;34.67;100811.25;5057296;28;45461;-47
2021/12/07 03:01:10;;;;;;;;;2.00;2.00;;;;;22.60;34.72;100800.66;5038976;28;48123;-48
2021/12/07 03:03:51;;;;;;;;;0.50;0.50;;;;;22.60;34.73;100812.06;5039706;28;45402;-48
2021/12/07 03:27:54;;;;;;;;;0.50;0.50;;;;;22.52;34.51;100835.50;5056790;28;45273;-47
2021/12/07 03:30:21;;;;;;;;;1.00;1.00;;;;;22.51;34.50;100829.38;5057058;28;45362;-50
2021/12/07 03:32:47;;;;;;;;;1.00;1.00;;;;;22.49;34.42;100823.34;5056597;28;46424;-52
2021/12/07 03:35:12;;;;;;;;;3.25;1.00;;;;;22.47;34.31;100838.44;5055800;28;45373;-52
2021/12/07 03:37:38;;;;;;;;;1.25;1.25;;;;;22.44;34.45;100841.25;5056661;28;45296;-50
2021/12/07 03:40:04;;;;;;;;;2.00;1.00;;;;;22.41;34.49;100849.41;5056691;28;45496;-53
2021/12/07 03:42:30;;;;;;;;;2.00;2.00;;;;;22.38;34.51;100841.63;5056650;28;45364;-52
2021/12/07 03:44:56;;;;;;;;;1.00;1.00;;;;;22.36;34.26;100835.59;5056636;28;45681;-50
2021/12/07 03:47:21;;;;;;;;;3.25;1.50;;;;;22.35;34.56;100833.91;5056544;28;45458;-51
2021/12/07 03:49:47;;;;;;;;;3.00;1.25;;;;;22.32;34.13;100813.81;5056551;28;45539;-51
2021/12/07 03:52:12;;;;;;;;;2.25;1.00;;;;;22.29;34.40;100814.00;5056113;28;45426;-53
2021/12/07 03:54:37;;;;;;;;;1.00;1.00;;;;;22.31;34.36;100837.69;5056290;28;45189;-51
2021/12/07 03:57:03;;;;;;;;;1.00;1.00;;;;;22.28;34.60;100837.88;5056335;28;45313;-58
2021/12/07 03:59:29;;;;;;;;;1.00;1.00;;;;;22.26;34.57;100830.06;5038587;28;45345;-49
2021/12/07 04:01:54;;;;;;;;;0.25;0.25;;;;;22.24;34.57;100824.03;5056064;28;45309;-51
2021/12/07 04:04:20;;;;;;;;;2.25;1.00;;;;;22.23;34.41;100825.81;5054678;28;45536;-53
2021/12/07 04:06:45;;;;;;;;;1.50;1.50;;;;;22.21;34.57;100811.84;5056189;28;45325;-51
2021/12/07 04:09:10;;;;;;;;;1.00;1.00;;;;;22.17;34.51;100820.91;5056415;28;45149;-51
2021/12/07 04:11:36;;;;;;;;;1.00;1.00;;;;;22.16;34.62;100805.19;5056009;28;45379;-51
2021/12/07 04:14:01;;;;;;;;;0.00;0.00;;;;;22.13;34.43;100808.84;5038405;28;45553;-53
2021/12/07 04:16:27;;;;;;;;;1.00;0.00;;;;;22.12;34.46;100811.59;5056159;28;45371;-52
2021/12/07 04:18:52;;;;;;;;;2.25;1.25;;;;;22.10;34.57;100824.91;5055992;28;45697;-53
2021/12/07 04:21:18;;;;;;;;;2.00;2.00;;;;;22.06;34.43;100828.66;5055901;28;45849;-50
2021/12/07 04:23:44;;;;;;;;;3.00;1.00;;;;;22.05;34.36;100830.44;5054587;28;46293;-53
2021/12/07 04:26:12;;;;;;;;;2.00;0.75;;;;;22.01;34.59;100822.81;5055963;28;45375;-52
2021/12/07 04:28:38;;;;;;;;;1.00;1.00;;;;;22.00;34.74;100815.81;5056906;28;45553;-52
2021/12/07 04:31:04;;;;;;;;;1.00;1.00;;;;;21.97;34.66;100819.50;5059677;28;46516;-51
2021/12/07 04:33:30;;;;;;;;;1.00;1.00;;;;;21.97;34.51;100818.69;5059600;28;45588;-54
2021/12/07 04:35:57;;;;;;;;;1.00;1.00;;;;;21.99;34.37;100819.44;5059464;28;45761;-52
2021/12/07 04:38:22;;;;;;;;;1.25;1.25;;;;;22.00;34.72;100824.59;5059464;28;45397;-54
2021/12/07 04:40:48;;;;;;;;;1.00;1.00;;;;;22.02;34.37;100821.88;5059115;28;45686;-54
2021/12/07 04:43:14;;;;;;;;;1.75;1.00;;;;;22.05;34.73;100821.69;5057913;28;45898;-54
2021/12/07 04:58:57;;;;;;;;;1.25;0.75;;;;;22.23;34.80;100809.97;5059166;28;45274;-48
2021/12/07 05:01:24;;;;;;;;;0.00;0.00;;;;;22.27;34.72;100815.06;5058668;28;45642;-52
2021/12/07 05:03:51;;;;;;;;;1.00;1.00;;;;;22.29;34.69;100818.44;5058965;28;45236;-52
2021/12/07 05:06:18;;;;;;;;;1.00;1.00;;;;;22.32;34.71;100813.00;5058577;28;45374;-50
2021/12/07 05:08:48;;;;;;;;;1.25;1.25;;;;;22.34;34.70;100806.66;5059031;28;45578;-54
2021/12/07 05:11:43;;;;;;;;;1.00;1.00;;;;;22.35;34.72;100807.50;5058613;28;47267;-54
2021/12/07 05:14:19;;;;;;;;;0.00;0.00;;;;;22.39;34.41;100809.00;5058686;28;45312;-53
2021/12/07 05:16:56;;;;;;;;;2.00;1.00;;;;;22.39;34.50;100806.34;5058874;28;45465;-48
2021/12/07 05:38:22;;;;;;;;;0.00;0.00;;;;;22.40;34.50;100815.97;5058560;28;45375;-52
2021/12/07 05:40:47;;;;;;;;;0.00;0.00;;;;;22.44;34.31;100819.31;5057479;28;45487;-51
2021/12/07 05:43:13;;;;;;;;;2.00;0.00;;;;;22.42;34.33;100824.69;5040114;28;46726;-52
2021/12/07 05:45:39;;;;;;;;;1.00;1.00;;;;;22.44;34.31;100821.94;5058192;28;45311;-51
2021/12/07 05:48:06;;;;;;;;;2.00;1.00;;;;;22.44;34.17;100825.41;5058531;28;45335;-51
2021/12/07 05:50:35;;;;;;;;;1.00;1.00;;;;;22.44;34.40;100811.38;5058848;28;45485;-51
2021/12/07 05:53:02;;;;;;;;;2.50;1.75;;;;;22.43;33.79;100823.75;5058119;28;45336;-51
2021/12/07 05:55:28;;;;;;;;;1.25;1.25;;;;;22.42;34.38;100819.41;5058131;28;45285;-53
2021/12/07 05:57:55;;;;;;;;;2.50;1.00;;;;;22.41;34.15;100830.91;5058221;28;45376;-49
2021/12/07 06:00:26;;;;;;;;;0.75;0.75;;;;;22.40;33.99;100831.81;5058184;28;45221;-53
2021/12/07 06:03:00;;;;;;;;;1.00;1.00;;;;;22.38;34.19;100836.34;5040460;28;45370;-50
2021/12/07 06:05:28;;;;;;;;;1.75;1.00;;;;;22.37;34.14;100837.28;5039300;28;45659;-52
2021/12/07 06:07:55;;;;;;;;;1.00;1.00;;;;;22.34;33.83;100834.84;5057905;28;45261;-53
2021/12/07 06:10:21;;;;;;;;;2.00;2.00;;;;;22.33;34.00;100841.06;5040074;28;45424;-51
2021/12/07 06:12:46;;;;;;;;;0.00;0.00;;;;;22.30;34.28;100830.72;5057647;28;46194;-51
2021/12/07 06:15:16;;;;;;;;;1.25;1.25;;;;;22.27;34.01;100820.34;5057599;28;45371;-54
2021/12/07 06:17:41;;;;;;;;;1.25;1.25;;;;;22.24;34.26;100822.22;5057451;28;45276;-54
2021/12/07 06:20:07;;;;;;;;;1.00;0.75;;;;;22.20;34.21;100815.47;5058286;28;45466;-51
2021/12/07 06:22:33;;;;;;;;;2.00;1.00;;;;;22.18;33.82;100806.78;5057540;28;46199;-51
2021/12/07 06:24:58;;;;;;;;;1.00;1.00;;;;;22.17;33.94;100801.56;5057835;28;45793;-47
2021/12/07 06:27:24;;;;;;;;;0.00;0.00;;;;;22.15;33.95;100785.84;5057750;28;45409;-52
2021/12/07 06:29:49;;;;;;;;;3.25;1.00;;;;;22.15;34.12;100790.28;5057724;28;45326;-54
2021/12/07 06:32:15;;;;;;;;;1.75;1.75;;;;;22.15;34.22;100785.84;5039278;28;47501;-54
2021/12/07 06:34:40;;;;;;;;;3.00;1.75;;;;;22.16;34.34;100776.97;5057339;28;45205;-50
2021/12/07 06:37:06;;;;;;;;;1.00;1.00;;;;;22.19;34.59;100779.44;5057825;28;45313;-54
2021/12/07 06:39:33;;;;;;;;;1.00;1.00;;;;;22.22;34.51;100781.03;5057589;28;45229;-55
2021/12/07 06:41:58;;;;;;;;;2.00;2.00;;;;;22.19;34.51;100768.00;5057154;28;46185;-54
2021/12/07 06:44:24;;;;;;;;;1.75;1.75;;;;;22.22;34.45;100766.03;5057234;28;45434;-50
2021/12/07 06:46:50;;;;;;;;;0.00;0.00;;;;;22.23;34.76;100770.38;5057304;28;45414;-52
2021/12/07 06:49:18;;;;;;;;;2.00;2.00;;;;;22.25;34.83;100772.91;5039348;28;45600;-55
2021/12/07 06:51:44;;;;;;;;;0.00;0.00;;;;;22.26;34.70;100776.41;5056805;28;46305;-54
2021/12/07 06:54:09;;;;;;;;;0.50;0.50;;;;;22.25;34.71;100770.28;5057361;28;45664;-50
2021/12/07 06:56:34;;;;;;;;;3.25;1.50;;;;;22.26;34.81;100768.47;5057154;28;45189;-54
2021/12/07 06:59:00;;;;;;;;;1.75;1.75;;;;;22.27;35.00;100767.53;5057294;28;45583;-55
2021/12/07 07:01:25;;;;;;;;;1.25;1.25;;;;;22.26;34.84;100752.63;5056783;28;46606;-53
2021/12/07 07:03:51;;;;;;;;;2.00;2.00;;;;;22.26;34.71;100750.00;5038718;28;45468;-54
2021/12/07 07:06:17;;;;;;;;;3.00;1.00;;;;;22.26;35.14;100755.28;5056800;28;45335;-50
2021/12/07 07:08:43;;;;;;;;;1.50;1.50;;;;;22.24;35.09;100745.66;5057055;28;45533;-54
2021/12/07 07:11:08;;;;;;;;;2.75;0.75;;;;;22.24;35.25;100745.66;5056969;28;45470;-49
2021/12/07 07:13:33;;;;;;;;;2.25;1.00;;;;;22.24;35.38;100732.47;5056845;28;45311;-52
2021/12/07 07:16:00;;;;;;;;;1.00;1.00;;;;;22.27;35.26;100741.13;5056804;28;45439;-54
2021/12/07 07:18:25;;;;;;;;;2.00;2.00;;;;;22.24;35.36;100727.19;5056920;28;45299;-53
2021/12/07 07:20:51;;;;;;;;;1.00;0.50;;;;;22.23;34.81;100741.31;5055310;28;45815;-51
2021/12/07 07:23:16;;;;;;;;;2.75;1.50;;;;;22.21;34.71;100727.38;5056728;28;45426;-53
2021/12/07 07:25:42;;;;;;;;;1.50;1.25;;;;;22.19;35.14;100724.00;5056887;28;45311;-46
2021/12/07 07:28:07;;;;;;;;;2.25;1.75;;;;;22.18;35.16;100719.66;5057312;28;45260;-55
2021/12/07 07:30:33;;;;;;;;;4.00;1.50;;;;;22.16;35.12;100718.09;5056487;28;45611;-52
2021/12/07 07:32:58;;;;;;;;;2.25;1.25;;;;;22.16;34.98;100705.72;5056480;28;45343;-48
2021/12/07 07:35:24;;;;;;;;;2.00;1.00;;;;;22.15;35.13;100698.75;5056604;28;45299;-53
2021/12/07 07:37:52;;;;;;;;;2.50;2.50;;;;;22.13;35.21;100691.88;5056721;28;45614;-54
2021/12/07 07:40:20;;;;;;;;;2.75;2.00;;;;;22.13;35.19;100689.22;5056331;28;46089;-52
2021/12/07 07:42:46;;;;;;;;;1.75;1.75;;;;;22.11;34.96;100686.66;5056506;28;45332;-54
2021/12/07 07:45:11;;;;;;;;;2.00;2.00;;;;;22.09;35.10;100686.78;5055201;28;45471;-52
2021/12/07 07:47:37;;;;;;;;;3.50;1.25;;;;;22.07;35.13;100683.38;5056639;28;45613;-51
2021/12/07 07:50:04;;;;;;;;;3.50;2.75;;;;;22.05;35.14;100674.72;5056310;28;46697;-52
2021/12/07 07:52:29;;;;;;;;;5.00;3.00;;;;;22.05;34.83;100672.06;5056308;28;45600;-55
2021/12/07 07:54:54;;;;;;;;;1.00;1.00;;;;;22.03;35.18;100673.13;5056424;28;45308;-49
2021/12/07 07:57:20;;;;;;;;;2.75;2.75;;;;;22.00;35.03;100675.97;5056413;28;45528;-50
2021/12/07 07:59:45;;;;;;;;;2.25;2.25;;;;;21.99;35.03;100667.22;5055950;28;46643;-55
2021/12/07 08:02:11;;;;;;;;;3.25;3.00;;;;;21.99;35.11;100667.22;5056395;28;45391;-53
2021/12/07 08:04:36;;;;;;;;;4.00;4.00;;;;;21.98;34.80;100665.50;5058601;28;45311;-54
2021/12/07 08:07:02;;;;;;;;;2.00;2.00;;;;;21.98;35.25;100662.03;5059902;28;45583;-51
2021/12/07 08:09:27;;;;;;;;;4.75;3.50;;;;;21.92;34.82;100655.38;5059576;28;45575;-50
2021/12/07 08:11:54;;;;;;;;;5.50;3.00;;;;;21.92;34.91;100653.56;5059520;28;45479;-50
2021/12/07 08:14:19;;;;;;;;;6.00;6.00;;;;;21.88;34.72;100643.31;5059692;28;45370;-53
2021/12/07 08:16:46;;;;;;;;;2.00;2.00;;;;;21.84;34.86;100633.88;5059821;28;45519;-49
2021/12/07 08:19:12;;;;;;;;;2.75;2.75;;;;;21.83;34.65;100645.41;5059541;28;45394;-49
2021/12/07 08:21:38;;;;;;;;;5.25;2.25;;;;;21.81;34.53;100645.47;5058437;28;45768;-51
2021/12/07 08:24:03;;;;;;;;;4.25;2.75;;;;;21.79;34.36;100642.09;5059749;28;45228;-49
2021/12/07 08:26:30;;;;;;;;;3.00;3.00;;;;;21.77;34.68;100636.09;5059687;28;45440;-51
2021/12/07 08:28:57;;;;;;;;;5.00;3.75;;;;;21.76;34.40;100622.03;5059305;28;46799;-53
2021/12/07 08:31:23;;;;;;;;;3.25;3.00;;;;;21.74;34.90;100608.09;5059359;28;45452;-50
2021/12/07 08:33:49;;;;;;;;;5.50;4.00;;;;;21.75;34.65;100614.25;5059507;28;45372;-54
2021/12/07 08:36:16;;;;;;;;;3.75;3.25;;;;;21.72;34.85;100609.16;5059791;28;45810;-49
2021/12/07 08:38:41;;;;;;;;;3.75;2.25;;;;;21.70;34.58;100619.81;5059630;28;45552;-54
2021/12/07 08:41:07;;;;;;;;;2.00;2.00;;;;;21.68;34.59;100612.91;5059427;28;45433;-45
2021/12/07 08:43:34;;;;;;;;;3.50;2.50;;;;;21.69;34.52;100614.63;5059211;28;45449;-50
2021/12/07 08:46:01;;;;;;;;;3.00;3.00;;;;;21.68;34.33;100612.91;5059317;28;45359;-45
2021/12/07 08:48:27;;;;;;;;;5.00;2.75;;;;;21.66;34.09;100599.00;5059025;28;45236;-52
2021/12/07 08:50:54;;;;;;;;;7.25;4.25;;;;;21.65;34.42;100607.84;5040825;28;45907;-52
2021/12/07 08:53:21;;;;;;;;;3.50;3.00;;;;;21.64;34.16;100606.16;5059349;28;45465;-53
2021/12/07 09:01:21;;;;;;;;;3.75;3.00;;;;;21.59;34.39;100573.00;5059084;28;45218;-53
2021/12/07 09:03:47;;;;;;;;;3.00;3.00;;;;;21.58;34.40;100575.72;5059169;28;45299;-47
2021/12/07 09:06:13;;;;;;;;;3.00;3.00;;;;;21.55;34.15;100568.84;5059309;28;45310;-53
2021/12/07 09:08:42;;;;;;;;;4.50;4.00;;;;;21.54;34.22;100538.16;5058686;28;47446;-53
2021/12/07 09:11:10;;;;;;;;;3.25;2.00;;;;;21.52;34.32;100529.50;5024902;28;45253;-51
2021/12/07 09:13:36;;;;;;;;;5.25;4.00;;;;;21.50;34.47;100533.19;5058996;28;45342;-53
2021/12/07 09:16:03;;;;;;;;;3.00;3.00;;;;;21.47;34.45;100524.53;5058974;28;45339;-52
2021/12/07 09:18:29;;;;;;;;;4.00;4.00;;;;;21.46;34.28;100519.31;5058456;28;45521;-51
2021/12/07 09:20:55;;;;;;;;;3.75;3.75;;;;;21.44;34.31;100523.88;5058492;28;45414;-53
2021/12/07 09:23:20;;;;;;;;;4.00;3.00;;;;;21.42;34.42;100517.84;5058591;28;45446;-50
2021/12/07 09:25:46;;;;;;;;;5.50;5.00;;;;;21.41;34.54;100503.81;5059099;28;45299;-50
2021/12/07 09:28:13;;;;;;;;;5.00;5.00;;;;;21.39;34.28;100487.22;5058347;28;45947;-53
2021/12/07 09:30:39;;;;;;;;;8.00;4.00;;;;;21.37;34.73;100483.00;5058499;28;45377;-56
2021/12/07 09:33:05;;;;;;;;;4.50;4.50;;;;;21.35;34.80;100498.06;5058530;28;45313;-50
2021/12/07 09:35:31;;;;;;;;;6.50;5.25;;;;;21.32;34.74;100491.22;5058518;28;45421;-57
2021/12/07 09:37:57;;;;;;;;;4.25;4.25;;;;;21.31;34.92;100497.44;5057685;28;45414;-53
2021/12/07 09:40:24;;;;;;;;;3.75;3.75;;;;;21.28;34.95;100501.13;5039311;28;45451;-53
2021/12/07 09:42:51;;;;;;;;;5.75;4.00;;;;;21.27;34.33;100506.50;5057147;28;45378;-51
2021/12/07 09:45:19;;;;;;;;;4.50;4.50;;;;;21.26;34.90;100496.91;5058863;28;45367;-54
2021/12/07 09:47:44;;;;;;;;;5.00;4.00;;;;;21.26;34.91;100505.63;5058380;28;46303;-51
2021/12/07 09:50:14;;;;;;;;;4.00;4.00;;;;;21.29;34.71;100508.09;5058176;28;45440;-52
2021/12/07 09:52:40;;;;;;;;;4.25;4.25;;;;;21.33;34.98;100489.44;5058137;28;45365;-50
2021/12/07 09:55:06;;;;;;;;;4.25;4.00;;;;;21.34;34.87;100486.69;5058302;28;45374;-53
2021/12/07 09:57:32;;;;;;;;;6.00;3.75;;;;;21.35;34.53;100477.84;5058066;28;45980;-50
2021/12/07 09:59:57;;;;;;;;;4.00;3.00;;;;;21.39;34.52;100487.22;5057859;28;45338;-51
2021/12/07 10:02:23;;;;;;;;;5.50;5.00;;;;;21.40;34.84;100488.09;5058191;28;45610;-51
2021/12/07 10:04:49;;;;;;;;;4.00;3.50;;;;;21.42;34.94;100491.47;5058469;28;45434;-53
2021/12/07 10:07:14;;;;;;;;;3.75;2.75;;;;;21.46;34.81;100498.22;5057765;28;46327;-51
2021/12/07 10:09:40;;;;;;;;;6.00;3.00;;;;;21.48;35.01;100493.72;5058444;28;45282;-53
2021/12/07 10:12:07;;;;;;;;;5.00;4.00;;;;;21.51;34.94;100484.75;5058599;28;45397;-49
2021/12/07 10:14:40;;;;;;;;;3.50;3.50;;;;;21.57;35.17;100479.91;5057934;28;45325;-53
2021/12/07 10:17:10;;;;;;;;;4.75;4.50;;;;;21.60;34.65;100463.94;5057780;28;45640;-52
2021/12/07 10:19:41;;;;;;;;;4.75;3.25;;;;;21.65;34.83;100444.34;5039235;28;45812;-52
2021/12/07 10:22:16;;;;;;;;;5.50;4.00;;;;;21.69;34.56;100445.81;5057782;28;45339;-53
2021/12/07 10:24:59;;;;;;;;;5.00;4.00;;;;;21.72;34.72;100430.63;5039743;28;45597;-51
2021/12/07 10:27:40;;;;;;;;;4.00;4.00;;;;;21.75;34.55;100424.31;5056968;28;46552;-53
2021/12/07 10:30:08;;;;;;;;;4.50;3.00;;;;;21.79;34.44;100415.22;5057580;28;45319;-54
2021/12/07 10:32:39;;;;;;;;;2.75;2.75;;;;;21.82;34.62;100401.84;5039796;28;45285;-51
2021/12/07 10:35:04;;;;;;;;;5.00;4.00;;;;;21.83;34.73;100397.44;5058036;28;45374;-56
2021/12/07 10:37:39;;;;;;;;;7.50;4.25;;;;;21.84;34.51;100392.03;5057504;28;45522;-49
2021/12/07 10:40:11;;;;;;;;;5.00;3.50;;;;;21.84;34.56;100372.69;5057390;28;46033;-53
2021/12/07 10:42:37;;;;;;;;;4.50;3.25;;;;;21.85;34.43;100369.97;5039250;28;45718;-50
2021/12/07 10:45:08;;;;;;;;;6.00;6.00;;;;;21.86;34.32;100368.16;5057599;28;45482;-50
2021/12/07 10:47:34;;;;;;;;;4.00;2.00;;;;;21.88;34.71;100350.44;5057176;28;46377;-53
2021/12/07 10:50:02;;;;;;;;;4.25;4.25;;;;;21.90;34.62;100351.19;5055967;28;45338;-52
2021/12/07 10:52:34;;;;;;;;;4.50;4.50;;;;;21.89;34.38;100337.13;5057106;28;45439;-52
2021/12/07 10:54:59;;;;;;;;;5.75;5.00;;;;;21.88;34.38;100319.63;5057290;28;45406;-52
2021/12/07 10:57:29;;;;;;;;;3.25;3.25;;;;;21.87;34.33;100310.03;5057022;28;46342;-54
2021/12/07 11:00:07;;;;;;;;;6.25;5.00;;;;;21.84;34.20;100301.47;5038915;28;45840;-54
2021/12/07 11:02:36;;;;;;;;;5.00;3.00;;;;;21.83;34.24;100295.38;5057110;28;45353;-54
2021/12/07 11:05:04;;;;;;;;;3.50;3.00;;;;;21.82;34.52;100277.84;5057117;28;45876;-54
2021/12/07 11:07:30;;;;;;;;;3.50;3.50;;;;;21.82;34.82;100277.84;5038868;28;47895;-54
2021/12/07 11:10:10;;;;;;;;;4.00;4.00;;;;;21.81;35.17;100270.88;5056836;28;45260;-54
2021/12/07 11:15:28;;;;;;;;;3.00;3.00;;;;;21.76;36.09;100241.38;5057111;28;45442;-53
2021/12/07 11:18:04;;;;;;;;;5.00;5.00;;;;;21.78;35.91;100235.03;5056535;28;45480;-48
2021/12/07 11:20:32;;;;;;;;;5.00;4.25;;;;;21.77;35.66;100214.03;5056840;28;45758;-54
2021/12/07 11:23:03;;;;;;;;;5.50;4.25;;;;;21.74;35.95;100203.69;5057054;28;45283;-54
2021/12/07 11:31:13;;;;;;;;;6.00;3.75;;;;;21.66;35.14;100161.22;5056390;28;45303;-54
2021/12/07 11:33:38;;;;;;;;;5.75;4.50;;;;;21.62;35.40;100163.19;5056687;28;45916;-53
2021/12/07 11:36:26;;;;;;;;;3.75;3.00;;;;;21.61;35.42;100157.09;5056672;28;45768;-52
2021/12/07 11:38:53;;;;;;;;;4.00;4.00;;;;;21.54;35.21;100132.09;5055660;28;46279;-54
2021/12/07 11:41:31;;;;;;;;;4.25;4.25;;;;;21.55;34.97;100128.47;5056493;28;45336;-52
2021/12/07 11:44:08;;;;;;;;;3.00;3.00;;;;;21.54;34.65;100118.91;5056383;28;45309;-52
2021/12/07 11:46:37;;;;;;;;;3.25;3.25;;;;;21.50;35.08;100114.78;5056677;28;45388;-52
2021/12/07 11:49:17;;;;;;;;;8.25;3.00;;;;;21.49;35.27;100114.91;5056191;28;46266;-53
2021/12/07 11:51:47;;;;;;;;;5.50;4.00;;;;;21.47;34.69;100104.44;5056334;28;45356;-49
2021/12/07 11:54:43;;;;;;;;;5.00;3.75;;;;;21.46;34.76;100092.22;5056679;28;45393;-54
2021/12/07 11:57:14;;;;;;;;;6.00;4.00;;;;;21.44;34.63;100086.25;5056520;28;45365;-52
2021/12/07 11:59:41;;;;;;;;;4.00;3.75;;;;;21.42;34.83;100080.22;5056365;28;46522;-52
2021/12/07 12:02:07;;;;;;;;;4.25;3.50;;;;;21.41;34.80;100063.56;5056256;28;45830;-52
2021/12/07 12:04:32;;;;;;;;;3.25;3.25;;;;;21.40;35.16;100053.13;5056291;28;45296;-51
2021/12/07 12:07:00;;;;;;;;;3.25;3.25;;;;;21.40;34.85;100039.94;5056305;28;45217;-46
2021/12/07 12:09:25;;;;;;;;;5.00;4.00;;;;;21.38;34.94;100031.31;5055991;28;45344;-47
2021/12/07 12:11:58;;;;;;;;;5.25;3.25;;;;;21.39;35.20;100041.72;5056048;28;45277;-47
2021/12/07 12:14:36;;;;;;;;;8.25;4.50;;;;;21.40;34.79;100030.22;5054684;28;45477;-47
2021/12/07 12:17:22;;;;;;;;;2.50;2.50;;;;;21.39;34.61;100022.44;5037597;28;45614;-49
2021/12/07 12:20:16;;;;;;;;;5.00;3.25;;;;;21.38;34.66;100007.56;5055959;28;45680;-43
2021/12/07 12:22:53;;;;;;;;;3.00;3.00;;;;;21.36;34.68;99998.94;5056199;28;45198;-49
2021/12/07 12:25:23;;;;;;;;;4.75;2.50;;;;;21.33;34.81;99983.34;5037749;28;45423;-46
2021/12/07 12:27:51;;;;;;;;;3.75;3.75;;;;;21.31;35.08;99989.59;5056263;28;45639;-44
2021/12/07 12:30:27;;;;;;;;;4.75;3.00;;;;;21.30;35.00;99987.91;5055658;28;45380;-46
2021/12/07 12:33:13;;;;;;;;;2.75;2.25;;;;;21.29;34.68;99975.66;5056026;28;45952;-48
2021/12/07 12:35:48;;;;;;;;;3.25;3.00;;;;;21.27;34.95;99955.66;5055777;28;45394;-46
2021/12/07 12:38:34;;;;;;;;;3.00;3.00;;;;;21.23;34.68;99931.28;5056026;28;45348;-49
2021/12/07 12:41:09;;;;;;;;;3.75;2.00;;;;;21.22;34.93;99920.88;5054980;28;46670;-53
2021/12/07 12:43:54;;;;;;;;;4.25;4.25;;;;;21.19;34.45;99905.28;5055626;28;45341;-50
2021/12/07 12:46:25;;;;;;;;;2.00;2.00;;;;;21.20;34.83;99902.56;5055544;28;45380;-49
2021/12/07 12:49:13;;;;;;;;;5.50;4.50;;;;;21.18;34.53;99883.38;5055821;28;45231;-47
2021/12/07 12:51:45;;;;;;;;;3.25;3.25;;;;;21.16;34.92;99861.56;5040541;28;46152;-49
2021/12/07 12:54:11;;;;;;;;;6.25;5.00;;;;;21.14;34.94;99856.41;5058805;28;45933;-48
2021/12/07 12:56:39;;;;;;;;;3.75;3.00;;;;;21.13;34.79;99857.34;5059244;28;45223;-52
2021/12/07 12:59:07;;;;;;;;;2.25;1.75;;;;;21.09;34.45;99837.44;5059011;28;45321;-53
2021/12/07 13:01:44;;;;;;;;;4.00;3.00;;;;;21.11;34.60;99837.34;5058855;28;46168;-52
2021/12/07 13:04:26;;;;;;;;;5.25;2.50;;;;;21.09;34.75;99834.00;5040901;28;45830;-50
2021/12/07 13:06:55;;;;;;;;;2.00;2.00;;;;;21.08;34.46;99830.50;5057398;28;45362;-47
2021/12/07 13:09:20;;;;;;;;;2.50;2.50;;;;;21.06;34.59;99836.84;5059042;28;45202;-47
2021/12/07 13:11:53;;;;;;;;;2.75;1.75;;;;;21.06;34.67;99837.66;5058533;28;45663;-47
2021/12/07 13:14:24;;;;;;;;;3.00;3.00;;;;;21.03;34.47;99821.25;5058585;28;45272;-48
2021/12/07 13:16:49;;;;;;;;;3.50;2.00;;;;;21.04;34.74;99804.50;5058838;28;45405;-47
2021/12/07 13:19:14;;;;;;;;;3.00;2.00;;;;;21.02;34.45;99801.97;5058653;28;46101;-48
2021/12/07 13:21:42;;;;;;;;;3.50;3.00;;;;;20.99;34.56;99810.97;5058438;28;46456;-49